Terminal Aerodrome Forecast
Issued by NWS Pocatello, ID

Home | Current Version | Previous Version | Text Only | Print | Product List | Glossary On
Versions: 1 2 3 4 5 6 7 8 9 10 11 12
930
FTUS45 KPIH 231131
TAFBYI
TAF
KBYI 231131Z 2312/2412 VRB05KT P6SM SCT200 WS005/22025KT
     FM231800 22010KT P6SM VCSH SCT080 BKN120
     FM232100 26011KT P6SM VCSH SCT040 BKN050
     FM240900 26011G21KT P6SM VCSH SCT020 BKN030=

USA.gov is the U.S. government's official web portal to all federal, state and local government web resources and services.